Time;durP1;ratioP1;P1;durP2;ratioP2;P2;SDS_P1;SDS_P2;PMS_P1;PMS_P2;Temp;Humidity;BMP_temperature;BMP_pressure;BME280_temperature;BME280_humidity;BME280_pressure;Samples;Min_cycle;Max_cycle;Signal;HPM_P1;HPM_P2
2024/01/27 00:00:17;;;;;;;16.93;3.43;;;;;;;;;;5011431;28;20669;-78
2024/01/27 00:02:43;;;;;;;20.60;3.80;;;;;;;;;;4986516;28;20234;-79
2024/01/27 00:05:11;;;;;;;15.77;3.33;;;;;;;;;;4999122;28;20221;-78
2024/01/27 00:07:37;;;;;;;21.13;3.43;;;;;;;;;;5000580;28;20227;-79
2024/01/27 00:10:02;;;;;;;18.23;3.33;;;;;;;;;;4985322;28;20225;-79
2024/01/27 00:12:28;;;;;;;19.50;3.90;;;;;;;;;;4997945;28;20220;-79
2024/01/27 00:14:54;;;;;;;15.00;3.07;;;;;;;;;;4977977;28;20221;-78
2024/01/27 00:17:25;;;;;;;22.33;3.90;;;;;;;;;;4988593;28;20631;-79
2024/01/27 00:19:51;;;;;;;20.30;3.90;;;;;;;;;;5007338;28;20248;-78
2024/01/27 00:22:17;;;;;;;14.23;3.10;;;;;;;;;;4992880;28;20283;-78
2024/01/27 00:24:45;;;;;;;18.73;3.47;;;;;;;;;;5007796;28;20226;-78
2024/01/27 00:27:10;;;;;;;18.20;3.47;;;;;;;;;;4994140;28;20252;-78
2024/01/27 00:29:38;;;;;;;13.97;3.50;;;;;;;;;;4999069;28;20299;-80
2024/01/27 00:32:04;;;;;;;23.23;4.20;;;;;;;;;;5010758;28;20240;-79
2024/01/27 00:34:32;;;;;;;17.03;3.20;;;;;;;;;;4983678;28;20224;-79
2024/01/27 00:37:00;;;;;;;20.37;3.70;;;;;;;;;;5010647;28;20224;-78
2024/01/27 00:39:25;;;;;;;17.17;4.00;;;;;;;;;;4972940;28;20223;-77
2024/01/27 00:41:52;;;;;;;18.10;3.97;;;;;;;;;;5007042;28;20291;-78
2024/01/27 00:44:20;;;;;;;20.47;3.70;;;;;;;;;;4994434;28;20272;-79
2024/01/27 00:46:45;;;;;;;15.03;3.70;;;;;;;;;;5009704;28;20255;-78
2024/01/27 00:49:11;;;;;;;14.90;3.27;;;;;;;;;;5024595;28;20217;-79
2024/01/27 00:51:39;;;;;;;20.27;3.80;;;;;;;;;;5018416;28;20279;-78
2024/01/27 00:54:09;;;;;;;18.37;3.43;;;;;;;;;;5003340;28;20217;-78
2024/01/27 00:56:39;;;;;;;17.67;3.67;;;;;;;;;;4999053;28;20232;-78
2024/01/27 00:59:05;;;;;;;21.07;3.97;;;;;;;;;;5001721;28;20220;-77
2024/01/27 01:01:30;;;;;;;20.17;3.77;;;;;;;;;;5001790;28;20244;-81
2024/01/27 01:03:56;;;;;;;16.43;3.60;;;;;;;;;;4976118;28;20220;-78
2024/01/27 01:06:22;;;;;;;14.00;3.67;;;;;;;;;;4996761;28;20599;-80
2024/01/27 01:08:48;;;;;;;13.77;3.50;;;;;;;;;;5002895;28;20263;-78
2024/01/27 01:11:14;;;;;;;17.70;4.13;;;;;;;;;;4992046;28;21114;-78
2024/01/27 01:13:44;;;;;;;19.00;4.10;;;;;;;;;;5010151;28;20231;-77
2024/01/27 01:16:10;;;;;;;16.83;4.03;;;;;;;;;;5010292;28;20228;-79
2024/01/27 01:18:36;;;;;;;20.43;3.60;;;;;;;;;;5000606;28;20250;-79
2024/01/27 01:21:04;;;;;;;22.80;4.07;;;;;;;;;;4976382;28;20217;-78
2024/01/27 01:23:32;;;;;;;19.40;3.97;;;;;;;;;;5020790;28;20217;-79
2024/01/27 01:25:58;;;;;;;16.57;3.70;;;;;;;;;;4990375;28;20251;-81
2024/01/27 01:28:23;;;;;;;17.53;3.83;;;;;;;;;;5016382;28;20212;-78
2024/01/27 01:30:51;;;;;;;17.47;4.00;;;;;;;;;;4993098;28;20224;-77
2024/01/27 01:33:20;;;;;;;15.77;3.47;;;;;;;;;;5013040;28;20227;-79
2024/01/27 01:35:45;;;;;;;22.67;4.10;;;;;;;;;;4980821;28;20304;-77
2024/01/27 01:38:11;;;;;;;15.90;3.40;;;;;;;;;;4989251;28;20236;-78
2024/01/27 01:40:39;;;;;;;17.03;4.23;;;;;;;;;;4994095;28;20224;-79
2024/01/27 01:43:09;;;;;;;17.63;3.40;;;;;;;;;;4980570;28;20315;-78
2024/01/27 01:45:35;;;;;;;18.50;3.93;;;;;;;;;;4994634;28;20223;-78
2024/01/27 01:48:01;;;;;;;18.97;3.83;;;;;;;;;;4966733;28;20286;-77
2024/01/27 01:50:30;;;;;;;16.03;3.63;;;;;;;;;;4988965;28;20224;-77
2024/01/27 01:52:58;;;;;;;14.83;3.37;;;;;;;;;;5006743;28;20228;-77
2024/01/27 01:55:24;;;;;;;14.60;3.20;;;;;;;;;;4982759;28;20239;-79
2024/01/27 01:57:52;;;;;;;17.47;3.30;;;;;;;;;;4996442;28;20250;-78
2024/01/27 02:00:17;;;;;;;23.07;3.53;;;;;;;;;;5008887;28;20217;-77
2024/01/27 02:02:46;;;;;;;20.00;3.77;;;;;;;;;;4998223;28;20993;-78
2024/01/27 02:05:12;;;;;;;17.10;3.30;;;;;;;;;;5015317;28;20849;-78
2024/01/27 02:07:40;;;;;;;17.37;3.97;;;;;;;;;;5009836;28;20260;-76
2024/01/27 02:10:16;;;;;;;24.07;4.10;;;;;;;;;;4991917;28;20234;-77
2024/01/27 02:12:49;;;;;;;20.93;3.80;;;;;;;;;;5003603;28;20216;-77
2024/01/27 02:15:21;;;;;;;18.63;3.33;;;;;;;;;;4999631;28;20285;-78
2024/01/27 02:17:51;;;;;;;17.87;3.17;;;;;;;;;;4993729;28;20236;-78
2024/01/27 02:20:20;;;;;;;15.20;2.90;;;;;;;;;;5004921;28;20220;-78
2024/01/27 02:22:45;;;;;;;16.07;3.27;;;;;;;;;;5008677;28;20228;-78
2024/01/27 02:25:10;;;;;;;19.67;3.87;;;;;;;;;;5006035;28;20671;-78
2024/01/27 02:27:36;;;;;;;19.90;3.80;;;;;;;;;;4989556;28;20278;-78
2024/01/27 02:30:02;;;;;;;17.67;3.93;;;;;;;;;;4974013;28;20228;-78
2024/01/27 02:32:27;;;;;;;19.53;3.53;;;;;;;;;;4982310;28;20306;-77
2024/01/27 02:34:53;;;;;;;19.87;3.93;;;;;;;;;;5017716;28;20239;-77
2024/01/27 02:37:20;;;;;;;17.53;3.57;;;;;;;;;;5027809;28;20239;-76
2024/01/27 02:39:48;;;;;;;20.60;4.10;;;;;;;;;;5008420;28;20220;-76
2024/01/27 02:42:13;;;;;;;20.57;4.40;;;;;;;;;;5015294;28;20226;-76
2024/01/27 02:44:39;;;;;;;21.87;4.20;;;;;;;;;;4997747;28;20227;-76
2024/01/27 02:47:04;;;;;;;20.60;4.07;;;;;;;;;;4985175;28;20254;-79
2024/01/27 02:49:30;;;;;;;19.33;4.17;;;;;;;;;;5017637;28;20227;-78
2024/01/27 02:51:55;;;;;;;20.17;4.53;;;;;;;;;;4978005;28;20242;-77
2024/01/27 02:54:27;;;;;;;21.57;4.33;;;;;;;;;;4985171;28;20251;-77
2024/01/27 02:56:53;;;;;;;20.43;3.87;;;;;;;;;;5003516;28;20237;-77
2024/01/27 02:59:20;;;;;;;18.87;3.90;;;;;;;;;;4990312;28;20220;-76
2024/01/27 03:01:46;;;;;;;20.67;4.10;;;;;;;;;;4960167;28;20310;-77
2024/01/27 03:04:14;;;;;;;16.03;3.43;;;;;;;;;;4986760;28;20227;-77
2024/01/27 03:06:40;;;;;;;18.33;3.90;;;;;;;;;;5005235;28;20315;-77
2024/01/27 03:09:10;;;;;;;19.30;3.43;;;;;;;;;;5005194;28;20272;-77
2024/01/27 03:11:35;;;;;;;22.37;3.93;;;;;;;;;;5020975;28;20769;-77
2024/01/27 03:14:03;;;;;;;21.90;3.97;;;;;;;;;;4992846;28;20220;-77
2024/01/27 03:16:29;;;;;;;19.50;4.13;;;;;;;;;;4982938;28;20236;-77
2024/01/27 03:18:57;;;;;;;17.80;4.07;;;;;;;;;;5017941;28;20225;-76
2024/01/27 03:21:22;;;;;;;22.20;3.83;;;;;;;;;;4986003;28;20219;-77
2024/01/27 03:23:48;;;;;;;22.90;3.87;;;;;;;;;;4996032;28;20240;-76
2024/01/27 03:26:16;;;;;;;17.73;3.47;;;;;;;;;;4976710;28;20211;-77
2024/01/27 03:28:41;;;;;;;19.33;3.93;;;;;;;;;;4977839;28;20606;-76
2024/01/27 03:31:09;;;;;;;20.37;3.63;;;;;;;;;;5024644;28;20216;-78
2024/01/27 03:33:37;;;;;;;18.30;3.50;;;;;;;;;;4999618;28;20239;-79
2024/01/27 03:36:12;;;;;;;16.77;3.23;;;;;;;;;;5007797;28;20216;-79
2024/01/27 03:38:39;;;;;;;21.23;3.87;;;;;;;;;;4999762;28;20721;-79
2024/01/27 03:41:04;;;;;;;18.60;3.30;;;;;;;;;;4981882;28;20232;-76
2024/01/27 03:43:33;;;;;;;20.30;3.50;;;;;;;;;;4978420;28;20231;-78
2024/01/27 03:45:59;;;;;;;16.10;3.37;;;;;;;;;;4992847;28;20236;-78
2024/01/27 03:48:24;;;;;;;24.07;4.47;;;;;;;;;;5012526;28;20313;-78
2024/01/27 03:50:52;;;;;;;19.03;4.00;;;;;;;;;;4985206;28;20717;-79
2024/01/27 03:53:17;;;;;;;25.27;5.43;;;;;;;;;;5000486;28;20216;-79
2024/01/27 03:55:45;;;;;;;14.67;3.90;;;;;;;;;;5008157;28;20233;-76
2024/01/27 04:01:58;;;;;;;14.50;3.87;;;;;;;;;;5026522;28;20724;-78
2024/01/27 04:04:23;;;;;;;24.97;4.20;;;;;;;;;;5001245;28;20229;-79
2024/01/27 04:06:54;;;;;;;17.23;3.93;;;;;;;;;;4998337;28;20275;-78
2024/01/27 04:09:19;;;;;;;19.20;4.17;;;;;;;;;;4979371;28;20216;-77
2024/01/27 04:11:45;;;;;;;24.80;4.60;;;;;;;;;;4984398;28;20236;-78
2024/01/27 04:14:10;;;;;;;15.70;3.40;;;;;;;;;;5002659;28;20269;-80
2024/01/27 04:16:38;;;;;;;19.90;3.70;;;;;;;;;;4971936;28;20241;-79
2024/01/27 04:19:06;;;;;;;18.70;3.73;;;;;;;;;;5003143;28;20239;-78
2024/01/27 04:21:36;;;;;;;16.73;4.90;;;;;;;;;;5002185;28;20229;-77
2024/01/27 04:24:02;;;;;;;16.23;3.53;;;;;;;;;;5005556;28;20375;-78
2024/01/27 04:26:28;;;;;;;17.97;4.00;;;;;;;;;;4999723;28;20229;-78
2024/01/27 04:28:53;;;;;;;21.27;3.70;;;;;;;;;;5008343;28;21223;-79
2024/01/27 04:31:19;;;;;;;11.70;3.50;;;;;;;;;;5006728;28;20231;-77
2024/01/27 04:33:46;;;;;;;17.40;3.50;;;;;;;;;;4984224;28;20248;-77
2024/01/27 04:36:12;;;;;;;19.53;3.80;;;;;;;;;;5007036;28;20281;-78
2024/01/27 04:38:40;;;;;;;24.97;4.87;;;;;;;;;;4995033;28;20222;-78
2024/01/27 04:41:08;;;;;;;22.03;4.30;;;;;;;;;;4981320;28;20235;-78
2024/01/27 04:43:37;;;;;;;20.00;3.53;;;;;;;;;;5022912;28;20230;-79
2024/01/27 04:46:07;;;;;;;18.47;4.10;;;;;;;;;;5013896;28;20224;-77
2024/01/27 04:48:35;;;;;;;21.53;4.27;;;;;;;;;;4988187;28;20223;-79
2024/01/27 04:51:00;;;;;;;22.27;5.37;;;;;;;;;;5006462;28;20228;-78
2024/01/27 04:53:26;;;;;;;15.73;3.67;;;;;;;;;;4999466;28;20224;-78
2024/01/27 04:55:59;;;;;;;17.77;3.37;;;;;;;;;;5009447;28;20232;-77
2024/01/27 04:58:24;;;;;;;19.80;3.23;;;;;;;;;;4978465;28;20216;-78
2024/01/27 05:00:50;;;;;;;15.07;3.83;;;;;;;;;;5008103;28;20224;-78
2024/01/27 05:03:17;;;;;;;15.43;3.40;;;;;;;;;;4993606;28;20646;-77
2024/01/27 05:05:45;;;;;;;16.63;3.97;;;;;;;;;;4999878;28;20220;-76
2024/01/27 05:08:14;;;;;;;19.03;3.67;;;;;;;;;;5013681;28;20211;-77
2024/01/27 05:10:40;;;;;;;20.73;3.30;;;;;;;;;;5017435;28;20220;-77
2024/01/27 05:13:05;;;;;;;17.17;3.60;;;;;;;;;;5002944;28;20263;-77
2024/01/27 05:15:31;;;;;;;17.97;3.70;;;;;;;;;;4972996;28;20258;-78
2024/01/27 05:17:59;;;;;;;18.23;3.30;;;;;;;;;;4992192;28;20221;-77
2024/01/27 05:20:24;;;;;;;22.73;3.80;;;;;;;;;;4979721;28;20227;-77
2024/01/27 05:22:53;;;;;;;12.87;3.10;;;;;;;;;;5009928;28;20264;-78
2024/01/27 05:25:18;;;;;;;18.80;3.20;;;;;;;;;;4984374;28;20311;-78
2024/01/27 05:27:46;;;;;;;23.83;3.47;;;;;;;;;;5002895;28;20221;-77
2024/01/27 05:30:18;;;;;;;25.27;3.50;;;;;;;;;;5010551;28;20227;-77
2024/01/27 05:32:44;;;;;;;18.83;3.40;;;;;;;;;;5010477;28;20776;-78
2024/01/27 05:35:10;;;;;;;25.30;3.57;;;;;;;;;;5005975;28;20228;-78
2024/01/27 05:37:36;;;;;;;21.17;3.67;;;;;;;;;;5010516;28;20288;-78
2024/01/27 05:40:04;;;;;;;19.40;3.80;;;;;;;;;;4978485;28;20231;-77
2024/01/27 05:42:30;;;;;;;22.17;4.37;;;;;;;;;;4991420;28;20228;-78
2024/01/27 05:44:58;;;;;;;19.20;4.23;;;;;;;;;;4993649;28;20316;-77
2024/01/27 05:47:28;;;;;;;16.33;3.43;;;;;;;;;;5001298;28;20496;-78
2024/01/27 05:49:56;;;;;;;20.63;3.37;;;;;;;;;;5003452;28;20240;-77
2024/01/27 05:52:25;;;;;;;21.53;4.23;;;;;;;;;;4985788;28;20224;-77
2024/01/27 05:54:51;;;;;;;20.47;3.30;;;;;;;;;;5000377;28;20301;-77
2024/01/27 05:57:17;;;;;;;21.73;4.13;;;;;;;;;;4992502;28;20272;-77
2024/01/27 05:59:45;;;;;;;19.50;3.10;;;;;;;;;;5003646;28;20223;-78
2024/01/27 06:02:10;;;;;;;19.60;3.33;;;;;;;;;;5013751;28;20228;-77
2024/01/27 06:04:38;;;;;;;16.40;3.60;;;;;;;;;;5020322;28;20217;-77
2024/01/27 06:07:10;;;;;;;19.03;3.13;;;;;;;;;;4991151;28;20224;-77
2024/01/27 06:09:39;;;;;;;22.93;3.60;;;;;;;;;;4983358;28;20240;-77
2024/01/27 06:12:08;;;;;;;17.30;3.70;;;;;;;;;;5009263;28;20232;-77
2024/01/27 06:14:36;;;;;;;17.90;3.57;;;;;;;;;;5005968;28;20308;-78
2024/01/27 06:17:06;;;;;;;15.70;3.10;;;;;;;;;;5003626;28;20312;-76
2024/01/27 06:19:32;;;;;;;13.90;3.57;;;;;;;;;;4991168;28;20243;-77
2024/01/27 06:22:00;;;;;;;29.07;3.47;;;;;;;;;;5008445;28;20705;-77
2024/01/27 06:24:25;;;;;;;20.83;3.70;;;;;;;;;;4997762;28;20226;-77
2024/01/27 06:26:53;;;;;;;19.30;3.80;;;;;;;;;;4993483;28;20721;-77
2024/01/27 06:29:18;;;;;;;25.30;3.70;;;;;;;;;;4984551;28;20225;-78
2024/01/27 06:31:46;;;;;;;24.30;4.17;;;;;;;;;;4997444;28;20239;-77
2024/01/27 06:34:12;;;;;;;28.13;3.53;;;;;;;;;;4993932;28;20266;-77
2024/01/27 06:36:37;;;;;;;27.03;3.90;;;;;;;;;;4982675;28;20243;-78
2024/01/27 06:39:03;;;;;;;21.30;3.77;;;;;;;;;;4992522;28;20227;-77
2024/01/27 06:41:31;;;;;;;19.17;3.73;;;;;;;;;;4968832;28;20281;-77
2024/01/27 06:43:56;;;;;;;19.50;3.57;;;;;;;;;;4991171;28;20224;-76
2024/01/27 06:46:22;;;;;;;19.13;3.90;;;;;;;;;;5002084;28;20721;-77
2024/01/27 06:48:50;;;;;;;22.13;3.63;;;;;;;;;;5002879;28;20224;-77
2024/01/27 06:51:20;;;;;;;20.90;3.93;;;;;;;;;;5017226;28;20282;-77
2024/01/27 06:53:48;;;;;;;18.07;3.20;;;;;;;;;;4962409;28;20220;-77
2024/01/27 06:56:14;;;;;;;19.73;3.87;;;;;;;;;;4995564;28;20274;-77
2024/01/27 06:58:42;;;;;;;18.77;3.47;;;;;;;;;;4987577;28;20571;-78
2024/01/27 07:01:10;;;;;;;22.57;3.60;;;;;;;;;;5009190;28;20689;-78
2024/01/27 07:03:39;;;;;;;15.57;3.70;;;;;;;;;;5013061;28;20220;-78
2024/01/27 07:06:07;;;;;;;27.33;4.17;;;;;;;;;;4985812;28;20220;-78
2024/01/27 07:08:40;;;;;;;25.27;4.33;;;;;;;;;;4993184;28;20234;-78
2024/01/27 07:11:08;;;;;;;23.37;4.27;;;;;;;;;;5002170;28;20223;-77
2024/01/27 07:13:33;;;;;;;22.53;4.30;;;;;;;;;;5008100;28;20293;-77
2024/01/27 07:15:59;;;;;;;20.97;3.73;;;;;;;;;;5012968;28;20224;-76
2024/01/27 07:18:24;;;;;;;21.07;4.07;;;;;;;;;;5042300;28;20789;-79
2024/01/27 07:20:51;;;;;;;30.53;4.40;;;;;;;;;;4986492;28;20758;-79
2024/01/27 07:23:17;;;;;;;21.97;4.33;;;;;;;;;;5011212;28;20637;-78
2024/01/27 07:25:45;;;;;;;22.70;4.20;;;;;;;;;;5000301;28;20233;-78
2024/01/27 07:28:10;;;;;;;17.30;3.93;;;;;;;;;;4974345;28;20220;-78
2024/01/27 07:30:39;;;;;;;24.60;4.87;;;;;;;;;;5017783;28;20293;-78
2024/01/27 07:33:04;;;;;;;25.20;4.20;;;;;;;;;;4981825;28;20236;-77
2024/01/27 07:35:32;;;;;;;24.27;3.80;;;;;;;;;;5008771;28;20227;-77
2024/01/27 07:37:58;;;;;;;25.00;4.90;;;;;;;;;;4976592;28;20619;-77
2024/01/27 07:40:23;;;;;;;21.70;4.53;;;;;;;;;;4994833;28;20226;-77
2024/01/27 07:42:52;;;;;;;20.03;4.13;;;;;;;;;;5024308;28;20262;-78
2024/01/27 07:45:20;;;;;;;23.87;4.40;;;;;;;;;;4994749;28;20251;-77
2024/01/27 07:47:50;;;;;;;19.03;4.20;;;;;;;;;;4996342;28;20226;-78
2024/01/27 07:50:15;;;;;;;20.67;4.53;;;;;;;;;;5001891;28;20224;-78
2024/01/27 07:52:43;;;;;;;26.73;4.87;;;;;;;;;;4977948;28;20335;-77
2024/01/27 07:55:09;;;;;;;23.70;4.50;;;;;;;;;;4994403;28;20224;-76
2024/01/27 07:57:35;;;;;;;33.93;5.20;;;;;;;;;;5007626;28;20604;-76
2024/01/27 08:00:00;;;;;;;17.40;4.40;;;;;;;;;;5021136;28;20223;-78
2024/01/27 08:02:26;;;;;;;24.00;4.43;;;;;;;;;;5013626;28;20232;-78
2024/01/27 08:04:54;;;;;;;15.50;4.23;;;;;;;;;;5003474;28;20228;-76
2024/01/27 08:07:24;;;;;;;19.03;3.87;;;;;;;;;;5008214;28;20335;-77
2024/01/27 08:09:52;;;;;;;16.20;4.37;;;;;;;;;;5021524;28;20225;-77
2024/01/27 08:12:20;;;;;;;16.47;4.37;;;;;;;;;;4989891;28;20217;-77
2024/01/27 08:14:45;;;;;;;20.33;4.87;;;;;;;;;;5011969;28;20238;-78
2024/01/27 08:17:18;;;;;;;21.50;5.47;;;;;;;;;;5012192;28;20225;-78
2024/01/27 08:19:44;;;;;;;18.40;4.33;;;;;;;;;;4959211;28;20230;-78
2024/01/27 08:22:09;;;;;;;16.90;4.13;;;;;;;;;;5005258;28;20221;-77
2024/01/27 08:24:35;;;;;;;23.30;4.87;;;;;;;;;;5004533;28;20228;-77
2024/01/27 08:27:01;;;;;;;18.20;4.70;;;;;;;;;;5010768;28;20223;-78
2024/01/27 08:29:29;;;;;;;25.33;5.33;;;;;;;;;;4995930;28;20228;-77
2024/01/27 08:31:56;;;;;;;16.03;4.80;;;;;;;;;;5006667;28;20233;-78
2024/01/27 08:34:24;;;;;;;20.27;5.53;;;;;;;;;;4980460;28;20224;-78
2024/01/27 08:36:59;;;;;;;24.43;6.20;;;;;;;;;;4983448;28;20625;-79
2024/01/27 08:39:27;;;;;;;24.30;6.53;;;;;;;;;;5014101;28;20225;-77
2024/01/27 08:41:52;;;;;;;21.83;6.47;;;;;;;;;;4984990;28;20224;-79
2024/01/27 08:44:23;;;;;;;23.17;6.53;;;;;;;;;;4995522;28;20274;-78
2024/01/27 08:46:48;;;;;;;21.50;6.93;;;;;;;;;;4999316;28;20236;-76
2024/01/27 08:49:14;;;;;;;22.57;7.67;;;;;;;;;;4984180;28;20233;-78
2024/01/27 08:51:39;;;;;;;20.83;6.73;;;;;;;;;;5013141;28;20236;-76
2024/01/27 08:54:05;;;;;;;18.30;6.77;;;;;;;;;;4982670;28;20689;-77
2024/01/27 08:56:32;;;;;;;23.00;6.07;;;;;;;;;;4992797;28;20233;-78
2024/01/27 08:58:58;;;;;;;19.40;5.87;;;;;;;;;;4979155;28;20224;-77
2024/01/27 09:01:26;;;;;;;19.83;5.73;;;;;;;;;;5008745;28;20862;-77
2024/01/27 09:03:54;;;;;;;18.57;5.97;;;;;;;;;;4990988;28;20216;-77
2024/01/27 09:06:19;;;;;;;22.30;6.17;;;;;;;;;;4980462;28;20239;-80
2024/01/27 09:08:45;;;;;;;22.90;6.77;;;;;;;;;;5004911;28;20217;-77
2024/01/27 09:11:11;;;;;;;25.87;5.90;;;;;;;;;;5003931;28;20224;-78
2024/01/27 09:13:36;;;;;;;15.10;5.43;;;;;;;;;;5002282;28;20242;-76
2024/01/27 09:16:04;;;;;;;19.80;5.33;;;;;;;;;;4989769;28;20226;-75
2024/01/27 09:18:32;;;;;;;21.27;5.17;;;;;;;;;;4968479;28;20736;-77
2024/01/27 09:21:00;;;;;;;16.93;5.40;;;;;;;;;;5025766;28;20812;-78
2024/01/27 09:23:28;;;;;;;19.57;5.40;;;;;;;;;;4997282;28;20232;-78
2024/01/27 09:25:54;;;;;;;19.63;5.40;;;;;;;;;;4998098;28;20228;-78
2024/01/27 09:28:23;;;;;;;18.43;5.57;;;;;;;;;;4982077;28;20607;-78
2024/01/27 09:30:51;;;;;;;17.70;4.63;;;;;;;;;;4992173;28;20258;-78
2024/01/27 09:33:22;;;;;;;18.93;4.63;;;;;;;;;;4988696;28;20458;-78
2024/01/27 09:35:49;;;;;;;18.47;4.60;;;;;;;;;;4980632;28;20287;-78
2024/01/27 09:38:15;;;;;;;20.87;4.97;;;;;;;;;;4995079;28;20343;-77
2024/01/27 09:40:40;;;;;;;15.80;4.40;;;;;;;;;;4983312;28;20288;-77
2024/01/27 09:43:06;;;;;;;16.63;4.40;;;;;;;;;;4995238;28;20224;-77
2024/01/27 09:45:34;;;;;;;15.80;4.50;;;;;;;;;;4971984;28;20706;-77
2024/01/27 09:47:59;;;;;;;18.40;4.77;;;;;;;;;;4998041;28;20224;-77
2024/01/27 09:50:28;;;;;;;17.97;4.27;;;;;;;;;;4995960;28;20213;-79
2024/01/27 09:52:53;;;;;;;12.87;4.07;;;;;;;;;;4996291;28;20228;-77
2024/01/27 09:55:19;;;;;;;14.83;4.10;;;;;;;;;;4983309;28;20647;-78
2024/01/27 09:57:45;;;;;;;15.87;3.80;;;;;;;;;;4994911;28;20234;-76
2024/01/27 10:00:13;;;;;;;20.50;4.90;;;;;;;;;;4990898;28;20217;-78
2024/01/27 10:02:41;;;;;;;12.57;3.70;;;;;;;;;;4987602;28;20232;-78
2024/01/27 10:05:08;;;;;;;15.93;4.50;;;;;;;;;;4978171;28;20306;-79
2024/01/27 10:07:34;;;;;;;13.60;4.13;;;;;;;;;;5005318;28;20220;-78
2024/01/27 10:10:01;;;;;;;15.33;4.10;;;;;;;;;;5007307;28;20219;-79
2024/01/27 10:12:29;;;;;;;10.67;3.67;;;;;;;;;;4990362;28;20236;-82
2024/01/27 10:14:55;;;;;;;15.73;4.47;;;;;;;;;;4955829;28;20306;-79
2024/01/27 10:17:36;;;;;;;15.10;4.30;;;;;;;;;;4989233;28;20230;-80
2024/01/27 10:20:07;;;;;;;14.53;5.00;;;;;;;;;;5003113;28;20228;-78
2024/01/27 10:22:40;;;;;;;17.03;4.80;;;;;;;;;;4985670;28;20311;-78
2024/01/27 10:25:08;;;;;;;14.40;4.40;;;;;;;;;;4967850;28;20214;-78
2024/01/27 10:27:36;;;;;;;15.23;4.43;;;;;;;;;;4976755;28;20235;-81
2024/01/27 10:30:02;;;;;;;13.43;4.27;;;;;;;;;;4984559;28;20231;-80
2024/01/27 10:32:28;;;;;;;20.00;4.70;;;;;;;;;;4987274;28;20281;-79
2024/01/27 10:35:09;;;;;;;13.47;4.10;;;;;;;;;;4970989;28;20220;-78
2024/01/27 10:37:37;;;;;;;14.67;4.60;;;;;;;;;;4991965;28;20294;-77
2024/01/27 10:40:04;;;;;;;17.20;4.37;;;;;;;;;;4989438;28;20232;-78
2024/01/27 10:42:32;;;;;;;17.43;4.80;;;;;;;;;;4992638;28;20229;-78
2024/01/27 10:44:58;;;;;;;17.97;4.93;;;;;;;;;;4986456;28;20236;-77
2024/01/27 10:47:27;;;;;;;13.20;4.50;;;;;;;;;;4988162;28;20425;-79
2024/01/27 10:49:54;;;;;;;15.93;4.63;;;;;;;;;;4992229;28;20228;-77
2024/01/27 10:52:20;;;;;;;16.57;4.63;;;;;;;;;;5003152;28;20354;-77
2024/01/27 10:54:46;;;;;;;19.33;4.63;;;;;;;;;;4990949;28;20242;-77
2024/01/27 10:57:13;;;;;;;14.13;4.27;;;;;;;;;;4981538;28;20233;-79
2024/01/27 10:59:43;;;;;;;16.53;5.00;;;;;;;;;;4984875;28;20252;-79
2024/01/27 11:02:11;;;;;;;17.33;4.50;;;;;;;;;;4973675;28;20224;-78
2024/01/27 11:04:38;;;;;;;16.07;4.70;;;;;;;;;;4969013;28;20224;-78
2024/01/27 11:07:04;;;;;;;14.67;4.50;;;;;;;;;;4987454;28;20635;-80
2024/01/27 11:09:30;;;;;;;13.90;5.23;;;;;;;;;;4994599;28;20338;-78
2024/01/27 11:11:55;;;;;;;20.03;5.30;;;;;;;;;;4972854;28;20228;-79
2024/01/27 11:14:21;;;;;;;11.23;5.07;;;;;;;;;;4992071;28;20216;-80
2024/01/27 11:16:47;;;;;;;14.73;4.53;;;;;;;;;;4987836;28;20236;-78
2024/01/27 11:19:12;;;;;;;15.03;4.30;;;;;;;;;;5004151;28;20216;-79
2024/01/27 11:21:43;;;;;;;12.90;4.60;;;;;;;;;;4995188;28;20234;-77
2024/01/27 11:24:15;;;;;;;11.83;4.50;;;;;;;;;;5009964;28;20220;-77
2024/01/27 11:26:43;;;;;;;14.00;4.50;;;;;;;;;;5003771;28;20220;-76
2024/01/27 11:29:19;;;;;;;17.63;5.33;;;;;;;;;;4987235;28;20219;-78
2024/01/27 11:31:45;;;;;;;12.03;4.77;;;;;;;;;;5004272;28;20296;-78
2024/01/27 11:34:16;;;;;;;14.43;5.27;;;;;;;;;;4997286;28;20224;-76
2024/01/27 11:36:42;;;;;;;14.60;4.80;;;;;;;;;;5007211;28;20220;-77
2024/01/27 11:39:28;;;;;;;13.17;5.00;;;;;;;;;;5002861;28;20221;-76
2024/01/27 11:42:04;;;;;;;12.73;4.63;;;;;;;;;;4992996;28;20228;-77
2024/01/27 11:44:30;;;;;;;12.83;4.07;;;;;;;;;;5002420;28;20232;-76
2024/01/27 11:46:55;;;;;;;13.73;4.57;;;;;;;;;;5007644;28;20316;-80
2024/01/27 11:49:21;;;;;;;11.03;3.90;;;;;;;;;;4975441;28;20228;-76
2024/01/27 11:51:49;;;;;;;17.60;4.30;;;;;;;;;;4994375;28;20240;-78
2024/01/27 11:54:17;;;;;;;16.23;4.93;;;;;;;;;;5008092;28;20869;-78
2024/01/27 11:56:43;;;;;;;13.87;4.50;;;;;;;;;;5003801;28;20721;-77
2024/01/27 11:59:10;;;;;;;11.93;4.53;;;;;;;;;;4991014;28;20217;-77
2024/01/27 12:01:36;;;;;;;14.07;5.23;;;;;;;;;;5004786;28;20232;-78
2024/01/27 12:04:05;;;;;;;12.13;4.27;;;;;;;;;;4992135;28;20255;-77
2024/01/27 12:06:31;;;;;;;12.50;4.97;;;;;;;;;;4998947;28;20250;-77
2024/01/27 12:08:58;;;;;;;15.20;6.97;;;;;;;;;;4984706;28;20219;-78
2024/01/27 12:11:31;;;;;;;12.23;4.67;;;;;;;;;;4983184;28;20247;-79
2024/01/27 12:13:59;;;;;;;16.63;4.80;;;;;;;;;;4981571;28;20335;-78
2024/01/27 12:16:25;;;;;;;14.33;4.97;;;;;;;;;;5010299;28;20765;-79
2024/01/27 12:18:56;;;;;;;10.07;4.00;;;;;;;;;;4996738;28;20229;-77
2024/01/27 12:21:22;;;;;;;15.60;4.67;;;;;;;;;;5014214;28;20220;-77
2024/01/27 12:23:51;;;;;;;11.33;4.67;;;;;;;;;;5009079;28;20232;-78
2024/01/27 12:26:17;;;;;;;14.20;4.07;;;;;;;;;;4981161;28;20744;-77
2024/01/27 12:28:46;;;;;;;13.67;4.90;;;;;;;;;;5000241;28;20224;-77
2024/01/27 12:31:12;;;;;;;15.20;5.07;;;;;;;;;;5001367;28;20219;-77
2024/01/27 12:33:37;;;;;;;16.63;4.33;;;;;;;;;;5010450;28;21019;-77
2024/01/27 12:36:03;;;;;;;15.17;4.37;;;;;;;;;;5031345;28;20224;-78
2024/01/27 12:38:29;;;;;;;14.30;4.23;;;;;;;;;;4996727;28;20216;-78
2024/01/27 12:40:54;;;;;;;12.83;3.93;;;;;;;;;;5002209;28;20227;-78
2024/01/27 12:43:20;;;;;;;10.50;4.20;;;;;;;;;;5001265;28;20591;-81
2024/01/27 12:45:45;;;;;;;11.43;4.20;;;;;;;;;;5019982;28;20610;-78
2024/01/27 12:48:11;;;;;;;19.13;7.47;;;;;;;;;;4998685;28;20231;-79
2024/01/27 12:50:36;;;;;;;17.77;6.10;;;;;;;;;;5001312;28;20231;-79
2024/01/27 12:53:04;;;;;;;15.83;4.70;;;;;;;;;;5010091;28;20225;-79
2024/01/27 12:55:29;;;;;;;12.23;4.17;;;;;;;;;;5022648;28;20244;-77
2024/01/27 12:57:55;;;;;;;14.83;4.70;;;;;;;;;;5021321;28;20324;-78
2024/01/27 13:00:21;;;;;;;18.80;6.60;;;;;;;;;;5000127;28;20294;-78
2024/01/27 13:02:46;;;;;;;14.07;4.90;;;;;;;;;;4993093;28;20277;-78
2024/01/27 13:05:14;;;;;;;16.77;5.93;;;;;;;;;;5009477;28;20677;-77
2024/01/27 13:07:42;;;;;;;12.93;5.57;;;;;;;;;;5006807;28;20235;-79
2024/01/27 13:10:12;;;;;;;15.93;4.17;;;;;;;;;;4996515;28;20220;-77
2024/01/27 13:12:38;;;;;;;13.10;3.33;;;;;;;;;;5013662;28;20231;-74
2024/01/27 13:15:07;;;;;;;12.23;3.43;;;;;;;;;;5003176;28;20224;-77
2024/01/27 13:17:32;;;;;;;10.60;3.47;;;;;;;;;;5021412;28;20279;-75
2024/01/27 13:20:00;;;;;;;11.37;3.30;;;;;;;;;;4989711;28;20224;-78
2024/01/27 13:22:30;;;;;;;12.80;4.10;;;;;;;;;;5014539;28;20304;-77
2024/01/27 13:24:57;;;;;;;10.43;3.07;;;;;;;;;;5003183;28;20231;-77
2024/01/27 13:27:23;;;;;;;10.17;3.47;;;;;;;;;;5023195;28;20220;-77
2024/01/27 13:29:51;;;;;;;14.47;3.50;;;;;;;;;;5009268;28;20232;-75
2024/01/27 13:32:16;;;;;;;13.40;4.00;;;;;;;;;;5018006;28;20294;-77
2024/01/27 13:34:42;;;;;;;12.27;3.50;;;;;;;;;;5001142;28;20506;-77
2024/01/27 13:37:09;;;;;;;11.83;3.53;;;;;;;;;;5016570;28;20232;-76
2024/01/27 13:39:35;;;;;;;11.50;3.60;;;;;;;;;;4982319;28;20221;-75
2024/01/27 13:42:04;;;;;;;9.60;3.33;;;;;;;;;;5005401;28;20997;-77
2024/01/27 13:44:36;;;;;;;14.47;3.43;;;;;;;;;;5015061;28;20307;-76
2024/01/27 13:47:04;;;;;;;13.17;3.20;;;;;;;;;;4999671;28;20239;-77
2024/01/27 13:49:31;;;;;;;13.77;3.13;;;;;;;;;;4995698;28;20236;-77
2024/01/27 13:51:56;;;;;;;12.10;3.87;;;;;;;;;;4984245;28;20240;-77
2024/01/27 13:54:26;;;;;;;12.83;3.73;;;;;;;;;;4973185;28;20225;-77
2024/01/27 13:56:54;;;;;;;7.90;3.00;;;;;;;;;;5021794;28;20248;-76
2024/01/27 13:59:22;;;;;;;12.67;3.33;;;;;;;;;;4998533;28;20734;-76
2024/01/27 14:01:48;;;;;;;11.83;3.80;;;;;;;;;;4984761;28;20756;-76
2024/01/27 14:04:13;;;;;;;14.00;3.57;;;;;;;;;;5010221;28;20220;-76
2024/01/27 14:06:43;;;;;;;10.17;3.13;;;;;;;;;;4994857;28;20341;-76
2024/01/27 14:09:13;;;;;;;15.40;3.40;;;;;;;;;;5001651;28;20216;-76
2024/01/27 14:11:38;;;;;;;9.83;3.50;;;;;;;;;;4992020;28;20265;-76
2024/01/27 14:14:04;;;;;;;11.00;3.97;;;;;;;;;;4997676;28;20224;-78
2024/01/27 14:16:30;;;;;;;11.67;3.90;;;;;;;;;;4982759;28;20231;-77
2024/01/27 14:19:00;;;;;;;13.27;3.43;;;;;;;;;;5006660;28;20258;-76
2024/01/27 14:21:28;;;;;;;14.20;3.73;;;;;;;;;;5014067;28;20233;-76
2024/01/27 14:24:00;;;;;;;15.17;3.83;;;;;;;;;;4992123;28;20752;-77
2024/01/27 14:26:29;;;;;;;10.73;3.10;;;;;;;;;;4971613;28;20221;-78
2024/01/27 14:28:57;;;;;;;13.77;3.87;;;;;;;;;;4994880;28;20232;-77
2024/01/27 14:31:22;;;;;;;10.37;3.67;;;;;;;;;;4995757;28;20238;-77
2024/01/27 14:33:48;;;;;;;13.03;3.60;;;;;;;;;;5008698;28;20601;-77